Huron, Ohio
Current Conditions -  °F | °C
As of 9:33 AM on Tuesday 21 Oct 2014 (Local Time) from KPCW Reporting Station
Light Rain Light Rain  
Wind Chill: 50°   Ceiling: 1600
Heat Index: 50°   Visibility: 8mi
Dew Point: 46°   Wind: 12mph
Humidity: 87%   Direction: 350°N
Pressure: 29.95"   Gusts: NA
Location:  41.39°N, 82.56°W
Report Text: KPCW 211333Z AUTO 35010KT 8SM -RA SCT010 BKN016 OVC026 10/08 A2995 RMK
Loading
Personal Weather Stations






























Interactive Weather Map
Tropical Storm Tracking
New forecast layout! Learn more

10-Day Weather Forecast

Advertisements
Track Severe Weather on mobile